sensor_id;sensor_type;location;lat;lon;timestamp;pressure;altitude;pressure_sealevel;temperature;humidity
59329;BME280;45100;46.926;7.452;2023-07-20T00:00:23;95242.44;;;21.57;59.77
59329;BME280;45100;46.926;7.452;2023-07-20T00:05:26;95241.67;;;21.50;59.00
59329;BME280;45100;46.926;7.452;2023-07-20T00:07:57;95240.70;;;21.49;59.47
59329;BME280;45100;46.926;7.452;2023-07-20T00:10:27;95240.96;;;21.46;59.59
59329;BME280;45100;46.926;7.452;2023-07-20T00:12:58;95238.98;;;21.43;59.31
59329;BME280;45100;46.926;7.452;2023-07-20T00:15:28;95237.61;;;21.40;58.95
59329;BME280;45100;46.926;7.452;2023-07-20T00:17:59;95236.23;;;21.37;59.27
59329;BME280;45100;46.926;7.452;2023-07-20T00:20:30;95235.35;;;21.32;58.99
59329;BME280;45100;46.926;7.452;2023-07-20T00:23:00;95241.15;;;21.29;58.53
59329;BME280;45100;46.926;7.452;2023-07-20T00:25:31;95239.17;;;21.26;58.42
59329;BME280;45100;46.926;7.452;2023-07-20T00:28:02;95236.38;;;21.22;58.45
59329;BME280;45100;46.926;7.452;2023-07-20T00:30:32;95242.56;;;21.18;58.27
59329;BME280;45100;46.926;7.452;2023-07-20T00:33:02;95241.92;;;21.14;57.96
59329;BME280;45100;46.926;7.452;2023-07-20T00:35:32;95242.25;;;21.10;58.03
59329;BME280;45100;46.926;7.452;2023-07-20T00:38:03;95242.11;;;21.05;57.81
59329;BME280;45100;46.926;7.452;2023-07-20T00:40:36;95242.88;;;21.01;57.71
59329;BME280;45100;46.926;7.452;2023-07-20T00:43:04;95244.12;;;20.97;58.23
59329;BME280;45100;46.926;7.452;2023-07-20T00:48:08;95247.09;;;20.89;57.66
59329;BME280;45100;46.926;7.452;2023-07-20T00:50:39;95244.53;;;20.84;58.02
59329;BME280;45100;46.926;7.452;2023-07-20T00:53:09;95246.11;;;20.80;58.21
59329;BME280;45100;46.926;7.452;2023-07-20T00:55:39;95247.61;;;20.75;57.91
59329;BME280;45100;46.926;7.452;2023-07-20T00:58:10;95243.81;;;20.72;57.74
59329;BME280;45100;46.926;7.452;2023-07-20T01:00:40;95239.48;;;20.68;58.16
59329;BME280;45100;46.926;7.452;2023-07-20T01:03:10;95240.34;;;20.64;59.53
59329;BME280;45100;46.926;7.452;2023-07-20T01:08:18;95238.98;;;20.55;59.90
59329;BME280;45100;46.926;7.452;2023-07-20T01:10:51;95229.77;;;20.53;59.44
59329;BME280;45100;46.926;7.452;2023-07-20T01:13:14;95231.22;;;20.52;59.78
59329;BME280;45100;46.926;7.452;2023-07-20T01:15:42;95228.68;;;20.51;59.17
59329;BME280;45100;46.926;7.452;2023-07-20T01:18:13;95230.92;;;20.51;59.25
59329;BME280;45100;46.926;7.452;2023-07-20T01:20:44;95228.52;;;20.50;58.67
59329;BME280;45100;46.926;7.452;2023-07-20T01:33:16;95226.77;;;20.41;59.63
59329;BME280;45100;46.926;7.452;2023-07-20T01:35:50;95225.84;;;20.41;59.43
59329;BME280;45100;46.926;7.452;2023-07-20T01:38:17;95225.02;;;20.41;59.27
59329;BME280;45100;46.926;7.452;2023-07-20T01:40:46;95225.30;;;20.40;59.11
59329;BME280;45100;46.926;7.452;2023-07-20T01:43:17;95223.52;;;20.39;59.53
59329;BME280;45100;46.926;7.452;2023-07-20T01:45:47;95225.02;;;20.40;59.62
59329;BME280;45100;46.926;7.452;2023-07-20T01:48:18;95222.34;;;20.41;59.36
59329;BME280;45100;46.926;7.452;2023-07-20T01:50:49;95218.19;;;20.40;59.69
59329;BME280;45100;46.926;7.452;2023-07-20T01:53:20;95216.91;;;20.38;59.24
59329;BME280;45100;46.926;7.452;2023-07-20T01:55:52;95216.94;;;20.36;59.36
59329;BME280;45100;46.926;7.452;2023-07-20T01:58:20;95214.10;;;20.33;58.93
59329;BME280;45100;46.926;7.452;2023-07-20T02:00:51;95220.42;;;20.32;59.12
59329;BME280;45100;46.926;7.452;2023-07-20T02:03:26;95216.36;;;20.30;59.37
59329;BME280;45100;46.926;7.452;2023-07-20T02:05:53;95219.53;;;20.28;59.64
59329;BME280;45100;46.926;7.452;2023-07-20T02:08:24;95218.56;;;20.22;59.21
59329;BME280;45100;46.926;7.452;2023-07-20T02:10:55;95220.53;;;20.18;59.54
59329;BME280;45100;46.926;7.452;2023-07-20T02:13:25;95222.77;;;20.13;59.88
59329;BME280;45100;46.926;7.452;2023-07-20T02:15:56;95220.17;;;20.10;60.49
59329;BME280;45100;46.926;7.452;2023-07-20T02:18:27;95218.51;;;20.07;60.88
59329;BME280;45100;46.926;7.452;2023-07-20T02:20:58;95220.73;;;20.04;61.44
59329;BME280;45100;46.926;7.452;2023-07-20T02:23:28;95222.12;;;20.01;61.97
59329;BME280;45100;46.926;7.452;2023-07-20T02:25:59;95225.22;;;19.99;62.09
59329;BME280;45100;46.926;7.452;2023-07-20T02:28:29;95228.69;;;19.96;61.91
59329;BME280;45100;46.926;7.452;2023-07-20T02:31:01;95227.41;;;19.94;61.88
59329;BME280;45100;46.926;7.452;2023-07-20T02:33:31;95232.58;;;19.90;62.19
59329;BME280;45100;46.926;7.452;2023-07-20T02:36:02;95233.30;;;19.88;62.33
59329;BME280;45100;46.926;7.452;2023-07-20T02:38:31;95228.62;;;19.85;62.98
59329;BME280;45100;46.926;7.452;2023-07-20T02:41:03;95229.62;;;19.83;63.37
59329;BME280;45100;46.926;7.452;2023-07-20T02:43:33;95235.27;;;19.79;63.09
59329;BME280;45100;46.926;7.452;2023-07-20T02:46:04;95238.62;;;19.75;63.88
59329;BME280;45100;46.926;7.452;2023-07-20T02:48:35;95235.86;;;19.70;64.31
59329;BME280;45100;46.926;7.452;2023-07-20T02:51:05;95237.02;;;19.66;64.06
59329;BME280;45100;46.926;7.452;2023-07-20T02:53:37;95237.17;;;19.62;64.34
59329;BME280;45100;46.926;7.452;2023-07-20T02:56:07;95236.55;;;19.59;64.44
59329;BME280;45100;46.926;7.452;2023-07-20T02:58:41;95235.83;;;19.54;64.87
59329;BME280;45100;46.926;7.452;2023-07-20T03:01:08;95238.73;;;19.52;65.64
59329;BME280;45100;46.926;7.452;2023-07-20T03:03:39;95236.59;;;19.46;66.65
59329;BME280;45100;46.926;7.452;2023-07-20T03:06:10;95234.64;;;19.38;67.07
59329;BME280;45100;46.926;7.452;2023-07-20T03:08:42;95235.18;;;19.33;66.70
59329;BME280;45100;46.926;7.452;2023-07-20T03:11:11;95236.64;;;19.27;66.57
59329;BME280;45100;46.926;7.452;2023-07-20T03:13:43;95233.62;;;19.21;66.94
59329;BME280;45100;46.926;7.452;2023-07-20T03:16:18;95239.08;;;19.15;67.36
59329;BME280;45100;46.926;7.452;2023-07-20T03:18:43;95244.20;;;19.09;67.57
59329;BME280;45100;46.926;7.452;2023-07-20T03:21:14;95244.87;;;19.05;68.45
59329;BME280;45100;46.926;7.452;2023-07-20T03:23:45;95244.78;;;19.03;68.15
59329;BME280;45100;46.926;7.452;2023-07-20T03:26:15;95246.14;;;19.01;68.51
59329;BME280;45100;46.926;7.452;2023-07-20T03:28:46;95244.69;;;18.98;68.29
59329;BME280;45100;46.926;7.452;2023-07-20T03:31:17;95246.08;;;18.92;68.61
59329;BME280;45100;46.926;7.452;2023-07-20T03:33:47;95245.47;;;18.86;68.72
59329;BME280;45100;46.926;7.452;2023-07-20T03:36:18;95243.62;;;18.82;69.34
59329;BME280;45100;46.926;7.452;2023-07-20T03:38:49;95243.42;;;18.80;68.81
59329;BME280;45100;46.926;7.452;2023-07-20T03:41:22;95245.25;;;18.78;69.37
59329;BME280;45100;46.926;7.452;2023-07-20T03:43:51;95249.45;;;18.78;69.56
59329;BME280;45100;46.926;7.452;2023-07-20T03:46:20;95249.46;;;18.76;69.25
59329;BME280;45100;46.926;7.452;2023-07-20T03:48:51;95250.27;;;18.71;69.92
59329;BME280;45100;46.926;7.452;2023-07-20T03:51:22;95248.86;;;18.67;69.80
59329;BME280;45100;46.926;7.452;2023-07-20T03:53:53;95254.77;;;18.64;70.29
59329;BME280;45100;46.926;7.452;2023-07-20T03:58:58;95249.22;;;18.62;70.18
59329;BME280;45100;46.926;7.452;2023-07-20T04:01:28;95247.22;;;18.60;70.29
59329;BME280;45100;46.926;7.452;2023-07-20T04:03:58;95244.28;;;18.57;70.46
59329;BME280;45100;46.926;7.452;2023-07-20T04:06:29;95244.06;;;18.56;70.80
59329;BME280;45100;46.926;7.452;2023-07-20T04:09:00;95244.02;;;18.54;70.67
59329;BME280;45100;46.926;7.452;2023-07-20T04:11:31;95248.47;;;18.48;70.87
59329;BME280;45100;46.926;7.452;2023-07-20T04:14:02;95248.59;;;18.42;71.54
59329;BME280;45100;46.926;7.452;2023-07-20T04:16:32;95250.30;;;18.38;72.25
59329;BME280;45100;46.926;7.452;2023-07-20T04:19:02;95251.73;;;18.36;72.32
59329;BME280;45100;46.926;7.452;2023-07-20T04:21:41;95248.52;;;18.36;72.04
59329;BME280;45100;46.926;7.452;2023-07-20T04:24:05;95243.94;;;18.36;72.09
59329;BME280;45100;46.926;7.452;2023-07-20T04:26:37;95248.17;;;18.38;71.90
59329;BME280;45100;46.926;7.452;2023-07-20T04:29:06;95248.92;;;18.41;71.81
59329;BME280;45100;46.926;7.452;2023-07-20T04:31:36;95247.16;;;18.43;71.78
59329;BME280;45100;46.926;7.452;2023-07-20T04:34:07;95248.27;;;18.45;71.88
59329;BME280;45100;46.926;7.452;2023-07-20T04:36:37;95249.34;;;18.47;71.64
59329;BME280;45100;46.926;7.452;2023-07-20T04:39:10;95250.14;;;18.50;71.80
59329;BME280;45100;46.926;7.452;2023-07-20T04:41:38;95252.78;;;18.56;71.63
59329;BME280;45100;46.926;7.452;2023-07-20T04:44:09;95250.16;;;18.78;71.26
59329;BME280;45100;46.926;7.452;2023-07-20T04:46:41;95249.55;;;19.08;70.23
59329;BME280;45100;46.926;7.452;2023-07-20T04:49:10;95251.14;;;19.24;69.09
59329;BME280;45100;46.926;7.452;2023-07-20T04:51:40;95250.52;;;19.30;68.69
59329;BME280;45100;46.926;7.452;2023-07-20T04:54:10;95243.97;;;19.32;68.47
59329;BME280;45100;46.926;7.452;2023-07-20T04:56:41;95247.44;;;19.30;68.20
59329;BME280;45100;46.926;7.452;2023-07-20T04:59:11;95246.47;;;19.26;68.02
59329;BME280;45100;46.926;7.452;2023-07-20T05:01:42;95246.49;;;19.22;68.67
59329;BME280;45100;46.926;7.452;2023-07-20T05:04:12;95244.28;;;19.20;68.80
59329;BME280;45100;46.926;7.452;2023-07-20T05:06:43;95245.40;;;19.21;68.92
59329;BME280;45100;46.926;7.452;2023-07-20T05:09:13;95245.41;;;19.27;68.74
59329;BME280;45100;46.926;7.452;2023-07-20T05:11:48;95248.06;;;19.32;68.49
59329;BME280;45100;46.926;7.452;2023-07-20T05:14:14;95246.60;;;19.39;68.83
59329;BME280;45100;46.926;7.452;2023-07-20T05:16:44;95247.33;;;19.57;67.93
59329;BME280;45100;46.926;7.452;2023-07-20T05:19:15;95244.39;;;19.72;66.93
59329;BME280;45100;46.926;7.452;2023-07-20T05:21:45;95243.81;;;19.73;66.66
59329;BME280;45100;46.926;7.452;2023-07-20T05:24:16;95238.27;;;19.66;66.63
59329;BME280;45100;46.926;7.452;2023-07-20T05:26:46;95241.44;;;19.61;66.85
59329;BME280;45100;46.926;7.452;2023-07-20T05:29:17;95240.61;;;19.57;66.83
59329;BME280;45100;46.926;7.452;2023-07-20T05:31:47;95240.25;;;19.54;66.88
59329;BME280;45100;46.926;7.452;2023-07-20T05:34:18;95240.58;;;19.53;67.24
59329;BME280;45100;46.926;7.452;2023-07-20T05:36:49;95235.17;;;19.54;66.89
59329;BME280;45100;46.926;7.452;2023-07-20T05:39:19;95235.72;;;19.58;67.06
59329;BME280;45100;46.926;7.452;2023-07-20T05:41:50;95231.08;;;19.58;66.93
59329;BME280;45100;46.926;7.452;2023-07-20T05:44:21;95229.11;;;19.54;67.44
59329;BME280;45100;46.926;7.452;2023-07-20T05:46:51;95228.20;;;19.51;67.76
59329;BME280;45100;46.926;7.452;2023-07-20T05:49:22;95228.92;;;19.50;68.17
59329;BME280;45100;46.926;7.452;2023-07-20T05:51:52;95230.12;;;19.51;68.28
59329;BME280;45100;46.926;7.452;2023-07-20T05:54:26;95228.89;;;19.52;67.67
59329;BME280;45100;46.926;7.452;2023-07-20T05:56:54;95230.12;;;19.50;67.59
59329;BME280;45100;46.926;7.452;2023-07-20T05:59:24;95228.05;;;19.49;67.42
59329;BME280;45100;46.926;7.452;2023-07-20T06:01:54;95226.34;;;19.51;66.88
59329;BME280;45100;46.926;7.452;2023-07-20T06:04:26;95229.55;;;19.53;66.96
59329;BME280;45100;46.926;7.452;2023-07-20T06:06:56;95232.14;;;19.57;66.77
59329;BME280;45100;46.926;7.452;2023-07-20T06:12:02;95234.39;;;19.63;66.08
59329;BME280;45100;46.926;7.452;2023-07-20T06:14:33;95231.22;;;19.66;66.03
59329;BME280;45100;46.926;7.452;2023-07-20T06:17:02;95232.91;;;19.72;65.99
59329;BME280;45100;46.926;7.452;2023-07-20T06:19:32;95230.73;;;19.76;65.62
59329;BME280;45100;46.926;7.452;2023-07-20T06:22:03;95233.56;;;19.82;66.03
59329;BME280;45100;46.926;7.452;2023-07-20T06:24:34;95237.06;;;19.90;65.98
59329;BME280;45100;46.926;7.452;2023-07-20T06:27:06;95240.38;;;20.01;65.71
59329;BME280;45100;46.926;7.452;2023-07-20T06:29:36;95242.06;;;20.09;65.22
59329;BME280;45100;46.926;7.452;2023-07-20T06:32:07;95238.39;;;20.15;64.86
59329;BME280;45100;46.926;7.452;2023-07-20T06:34:39;95237.41;;;20.19;64.63
59329;BME280;45100;46.926;7.452;2023-07-20T06:37:07;95236.49;;;20.23;64.55
59329;BME280;45100;46.926;7.452;2023-07-20T06:39:37;95234.05;;;20.26;64.76
59329;BME280;45100;46.926;7.452;2023-07-20T06:42:08;95238.02;;;20.28;64.77
59329;BME280;45100;46.926;7.452;2023-07-20T06:44:39;95240.00;;;20.33;64.94
59329;BME280;45100;46.926;7.452;2023-07-20T06:47:09;95238.00;;;20.45;64.79
59329;BME280;45100;46.926;7.452;2023-07-20T06:49:39;95242.19;;;20.61;64.19
59329;BME280;45100;46.926;7.452;2023-07-20T06:52:10;95238.78;;;20.80;63.96
59329;BME280;45100;46.926;7.452;2023-07-20T06:54:41;95234.31;;;20.98;62.86
59329;BME280;45100;46.926;7.452;2023-07-20T06:57:11;95230.59;;;21.13;62.39
59329;BME280;45100;46.926;7.452;2023-07-20T06:59:42;95230.48;;;21.31;62.34
59329;BME280;45100;46.926;7.452;2023-07-20T07:02:12;95233.91;;;21.49;61.52
59329;BME280;45100;46.926;7.452;2023-07-20T07:04:42;95231.64;;;21.69;60.72
59329;BME280;45100;46.926;7.452;2023-07-20T07:07:15;95229.95;;;21.91;60.19
59329;BME280;45100;46.926;7.452;2023-07-20T07:09:43;95228.14;;;22.09;59.40
59329;BME280;45100;46.926;7.452;2023-07-20T07:12:14;95228.81;;;22.22;58.58
59329;BME280;45100;46.926;7.452;2023-07-20T07:14:44;95226.02;;;22.31;58.07
59329;BME280;45100;46.926;7.452;2023-07-20T07:17:15;95224.34;;;22.40;57.29
59329;BME280;45100;46.926;7.452;2023-07-20T07:19:46;95223.67;;;22.51;54.95
59329;BME280;45100;46.926;7.452;2023-07-20T07:22:17;95230.61;;;22.64;54.86
59329;BME280;45100;46.926;7.452;2023-07-20T07:24:48;95225.80;;;22.74;54.95
59329;BME280;45100;46.926;7.452;2023-07-20T07:27:18;95226.22;;;22.82;54.92
59329;BME280;45100;46.926;7.452;2023-07-20T07:29:50;95222.97;;;22.85;53.36
59329;BME280;45100;46.926;7.452;2023-07-20T07:32:20;95222.67;;;22.92;51.90
59329;BME280;45100;46.926;7.452;2023-07-20T07:34:50;95219.80;;;23.06;51.93
59329;BME280;45100;46.926;7.452;2023-07-20T07:37:21;95216.75;;;23.21;49.18
59329;BME280;45100;46.926;7.452;2023-07-20T07:39:52;95216.46;;;23.34;48.66
59329;BME280;45100;46.926;7.452;2023-07-20T07:42:23;95213.33;;;23.51;48.95
59329;BME280;45100;46.926;7.452;2023-07-20T07:44:54;95206.48;;;23.70;47.98
59329;BME280;45100;46.926;7.452;2023-07-20T07:47:24;95207.77;;;23.76;47.87
59329;BME280;45100;46.926;7.452;2023-07-20T07:49:55;95208.00;;;23.68;48.01
59329;BME280;45100;46.926;7.452;2023-07-20T07:52:26;95211.63;;;23.61;49.13
59329;BME280;45100;46.926;7.452;2023-07-20T07:54:57;95203.64;;;23.62;48.76
59329;BME280;45100;46.926;7.452;2023-07-20T07:57:28;95199.39;;;23.67;48.56
59329;BME280;45100;46.926;7.452;2023-07-20T07:59:57;95201.94;;;23.69;48.55
59329;BME280;45100;46.926;7.452;2023-07-20T08:02:29;95207.16;;;23.62;48.76
59329;BME280;45100;46.926;7.452;2023-07-20T08:04:58;95207.72;;;23.54;49.33
59329;BME280;45100;46.926;7.452;2023-07-20T08:07:29;95205.48;;;23.58;49.89
59329;BME280;45100;46.926;7.452;2023-07-20T08:10:01;95202.20;;;23.70;48.50
59329;BME280;45100;46.926;7.452;2023-07-20T08:12:30;95195.07;;;23.74;48.32
59329;BME280;45100;46.926;7.452;2023-07-20T08:15:00;95198.03;;;23.76;48.76
59329;BME280;45100;46.926;7.452;2023-07-20T08:17:31;95197.52;;;23.77;48.49
59329;BME280;45100;46.926;7.452;2023-07-20T08:20:02;95193.48;;;23.73;48.38
59329;BME280;45100;46.926;7.452;2023-07-20T08:22:32;95190.88;;;23.75;48.37
59329;BME280;45100;46.926;7.452;2023-07-20T08:25:03;95187.30;;;23.81;46.73
59329;BME280;45100;46.926;7.452;2023-07-20T08:27:34;95192.39;;;23.79;46.43
59329;BME280;45100;46.926;7.452;2023-07-20T08:30:04;95187.27;;;23.73;46.77
59329;BME280;45100;46.926;7.452;2023-07-20T08:32:34;95186.67;;;23.78;47.27
59329;BME280;45100;46.926;7.452;2023-07-20T08:35:05;95179.59;;;23.91;47.04
59329;BME280;45100;46.926;7.452;2023-07-20T08:37:35;95179.76;;;24.08;46.56
59329;BME280;45100;46.926;7.452;2023-07-20T08:40:11;95179.56;;;24.19;45.89
59329;BME280;45100;46.926;7.452;2023-07-20T08:42:38;95169.61;;;24.23;45.19
59329;BME280;45100;46.926;7.452;2023-07-20T08:45:08;95172.19;;;24.25;44.94
59329;BME280;45100;46.926;7.452;2023-07-20T08:47:38;95173.09;;;24.28;45.53
59329;BME280;45100;46.926;7.452;2023-07-20T08:50:08;95172.34;;;24.35;44.54
59329;BME280;45100;46.926;7.452;2023-07-20T08:52:38;95177.00;;;24.34;44.73
59329;BME280;45100;46.926;7.452;2023-07-20T08:55:09;95171.40;;;24.32;44.65
59329;BME280;45100;46.926;7.452;2023-07-20T08:57:40;95167.88;;;24.37;44.92
59329;BME280;45100;46.926;7.452;2023-07-20T09:00:15;95167.47;;;24.53;44.92
59329;BME280;45100;46.926;7.452;2023-07-20T09:02:41;95161.54;;;24.71;44.53
59329;BME280;45100;46.926;7.452;2023-07-20T09:05:10;95159.12;;;24.94;43.46
59329;BME280;45100;46.926;7.452;2023-07-20T09:07:41;95154.61;;;25.08;43.63
59329;BME280;45100;46.926;7.452;2023-07-20T09:10:13;95160.36;;;25.13;43.27
59329;BME280;45100;46.926;7.452;2023-07-20T09:12:43;95157.56;;;25.12;43.54
59329;BME280;45100;46.926;7.452;2023-07-20T09:15:12;95154.18;;;25.19;43.24
59329;BME280;45100;46.926;7.452;2023-07-20T09:17:49;95159.50;;;25.21;43.15
59329;BME280;45100;46.926;7.452;2023-07-20T09:20:15;95157.39;;;25.22;43.21
59329;BME280;45100;46.926;7.452;2023-07-20T09:22:44;95149.76;;;25.35;43.18
59329;BME280;45100;46.926;7.452;2023-07-20T09:27:48;95151.72;;;25.67;42.41
59329;BME280;45100;46.926;7.452;2023-07-20T09:30:17;95150.02;;;25.70;42.46
59329;BME280;45100;46.926;7.452;2023-07-20T09:32:48;95147.21;;;25.62;42.45
59329;BME280;45100;46.926;7.452;2023-07-20T09:35:20;95144.75;;;25.43;42.53
59329;BME280;45100;46.926;7.452;2023-07-20T09:37:59;95147.30;;;25.29;43.29
59329;BME280;45100;46.926;7.452;2023-07-20T09:40:19;95140.28;;;25.26;43.12
59329;BME280;45100;46.926;7.452;2023-07-20T09:42:52;95135.79;;;25.33;43.07
59329;BME280;45100;46.926;7.452;2023-07-20T09:45:19;95135.25;;;25.48;42.72
59329;BME280;45100;46.926;7.452;2023-07-20T09:47:51;95133.78;;;25.64;42.05
59329;BME280;45100;46.926;7.452;2023-07-20T09:50:23;95133.62;;;25.81;41.45
59329;BME280;45100;46.926;7.452;2023-07-20T09:52:52;95132.94;;;25.86;41.19
59329;BME280;45100;46.926;7.452;2023-07-20T09:55:25;95135.08;;;25.84;41.40
59329;BME280;45100;46.926;7.452;2023-07-20T09:57:55;95126.05;;;25.74;42.24
59329;BME280;45100;46.926;7.452;2023-07-20T10:00:24;95121.30;;;25.71;41.69
59329;BME280;45100;46.926;7.452;2023-07-20T10:02:56;95120.50;;;25.65;42.26
59329;BME280;45100;46.926;7.452;2023-07-20T10:05:27;95117.95;;;25.67;42.00
59329;BME280;45100;46.926;7.452;2023-07-20T10:07:57;95116.98;;;25.81;42.06
59329;BME280;45100;46.926;7.452;2023-07-20T10:10:27;95107.83;;;25.97;40.97
59329;BME280;45100;46.926;7.452;2023-07-20T10:12:57;95103.58;;;26.09;40.89
59329;BME280;45100;46.926;7.452;2023-07-20T10:15:30;95099.16;;;26.24;40.39
59329;BME280;45100;46.926;7.452;2023-07-20T10:18:17;95095.04;;;26.30;40.13
59329;BME280;45100;46.926;7.452;2023-07-20T10:20:29;95089.73;;;26.21;40.54
59329;BME280;45100;46.926;7.452;2023-07-20T10:22:59;95087.80;;;26.18;40.92
59329;BME280;45100;46.926;7.452;2023-07-20T10:25:28;95083.02;;;26.25;40.27
59329;BME280;45100;46.926;7.452;2023-07-20T10:28:00;95086.91;;;26.32;40.55
59329;BME280;45100;46.926;7.452;2023-07-20T10:30:29;95084.19;;;26.31;40.48
59329;BME280;45100;46.926;7.452;2023-07-20T10:33:04;95082.16;;;26.29;40.45
59329;BME280;45100;46.926;7.452;2023-07-20T10:35:31;95074.92;;;26.35;40.10
59329;BME280;45100;46.926;7.452;2023-07-20T10:38:01;95070.36;;;26.27;40.07
59329;BME280;45100;46.926;7.452;2023-07-20T10:40:33;95069.67;;;26.10;39.26
59329;BME280;45100;46.926;7.452;2023-07-20T10:43:03;95066.93;;;26.00;40.24
59329;BME280;45100;46.926;7.452;2023-07-20T10:45:35;95059.69;;;26.04;40.14
59329;BME280;45100;46.926;7.452;2023-07-20T10:48:03;95059.83;;;26.11;40.35
59329;BME280;45100;46.926;7.452;2023-07-20T10:50:33;95067.95;;;26.17;40.58
59329;BME280;45100;46.926;7.452;2023-07-20T10:53:09;95067.55;;;26.25;39.97
59329;BME280;45100;46.926;7.452;2023-07-20T10:55:33;95066.42;;;26.41;39.64
59329;BME280;45100;46.926;7.452;2023-07-20T10:58:07;95059.77;;;26.52;38.82
59329;BME280;45100;46.926;7.452;2023-07-20T11:00:33;95057.74;;;26.57;38.65
59329;BME280;45100;46.926;7.452;2023-07-20T11:03:04;95053.41;;;26.66;38.09
59329;BME280;45100;46.926;7.452;2023-07-20T11:05:37;95052.77;;;26.72;38.01
59329;BME280;45100;46.926;7.452;2023-07-20T11:08:09;95051.74;;;26.64;38.10
59329;BME280;45100;46.926;7.452;2023-07-20T11:10:37;95046.53;;;26.60;39.11
59329;BME280;45100;46.926;7.452;2023-07-20T11:13:17;95040.14;;;26.66;38.71
59329;BME280;45100;46.926;7.452;2023-07-20T11:18:12;95046.40;;;26.83;38.62
59329;BME280;45100;46.926;7.452;2023-07-20T11:20:38;95039.63;;;26.92;38.34
59329;BME280;45100;46.926;7.452;2023-07-20T11:23:09;95041.02;;;26.97;38.63
59329;BME280;45100;46.926;7.452;2023-07-20T11:25:40;95038.14;;;26.85;38.26
59329;BME280;45100;46.926;7.452;2023-07-20T11:28:13;95040.50;;;26.67;38.66
59329;BME280;45100;46.926;7.452;2023-07-20T11:30:41;95037.28;;;26.66;38.69
59329;BME280;45100;46.926;7.452;2023-07-20T11:33:11;95031.55;;;26.78;38.14
59329;BME280;45100;46.926;7.452;2023-07-20T11:35:45;95033.36;;;26.95;38.05
59329;BME280;45100;46.926;7.452;2023-07-20T11:38:13;95025.62;;;27.06;36.84
59329;BME280;45100;46.926;7.452;2023-07-20T11:40:43;95021.90;;;27.09;36.58
59329;BME280;45100;46.926;7.452;2023-07-20T11:43:14;95016.92;;;27.17;36.82
59329;BME280;45100;46.926;7.452;2023-07-20T11:45:44;95015.36;;;27.34;36.86
59329;BME280;45100;46.926;7.452;2023-07-20T11:48:15;95012.55;;;27.44;36.50
59329;BME280;45100;46.926;7.452;2023-07-20T11:50:45;95011.69;;;27.39;36.42
59329;BME280;45100;46.926;7.452;2023-07-20T11:53:15;95001.49;;;27.37;36.29
59329;BME280;45100;46.926;7.452;2023-07-20T11:55:47;95005.73;;;27.40;36.22
59329;BME280;45100;46.926;7.452;2023-07-20T11:58:17;94998.72;;;27.38;35.12
59329;BME280;45100;46.926;7.452;2023-07-20T12:00:48;94999.74;;;27.37;35.85
59329;BME280;45100;46.926;7.452;2023-07-20T12:03:19;94995.28;;;27.38;35.46
59329;BME280;45100;46.926;7.452;2023-07-20T12:05:51;94994.45;;;27.33;35.55
59329;BME280;45100;46.926;7.452;2023-07-20T12:08:20;94994.92;;;27.28;35.66
59329;BME280;45100;46.926;7.452;2023-07-20T12:10:51;94988.13;;;27.21;35.26
59329;BME280;45100;46.926;7.452;2023-07-20T12:13:22;94978.56;;;27.22;35.63
59329;BME280;45100;46.926;7.452;2023-07-20T12:15:53;94979.44;;;27.22;35.54
59329;BME280;45100;46.926;7.452;2023-07-20T12:18:22;94980.63;;;27.08;35.07
59329;BME280;45100;46.926;7.452;2023-07-20T12:20:58;94973.84;;;26.96;35.22
59329;BME280;45100;46.926;7.452;2023-07-20T12:23:24;94969.72;;;26.97;35.25
59329;BME280;45100;46.926;7.452;2023-07-20T12:25:56;94966.67;;;27.11;35.59
59329;BME280;45100;46.926;7.452;2023-07-20T12:28:27;94961.62;;;27.31;34.84
59329;BME280;45100;46.926;7.452;2023-07-20T12:30:58;94957.88;;;27.42;34.96
59329;BME280;45100;46.926;7.452;2023-07-20T12:33:25;94958.58;;;27.46;35.24
59329;BME280;45100;46.926;7.452;2023-07-20T12:36:00;94961.78;;;27.44;34.97
59329;BME280;45100;46.926;7.452;2023-07-20T12:38:29;94959.30;;;27.34;35.19
59329;BME280;45100;46.926;7.452;2023-07-20T12:43:32;94950.55;;;27.25;35.33
59329;BME280;45100;46.926;7.452;2023-07-20T12:46:01;94948.09;;;27.33;35.25
59329;BME280;45100;46.926;7.452;2023-07-20T12:48:32;94951.26;;;27.45;34.47
59329;BME280;45100;46.926;7.452;2023-07-20T12:51:03;94943.83;;;27.56;34.39
59329;BME280;45100;46.926;7.452;2023-07-20T12:53:34;94944.56;;;27.69;33.96
59329;BME280;45100;46.926;7.452;2023-07-20T12:58:38;94939.56;;;27.86;34.52
59329;BME280;45100;46.926;7.452;2023-07-20T13:01:08;94936.90;;;27.93;34.54
59329;BME280;45100;46.926;7.452;2023-07-20T13:03:39;94934.11;;;28.13;33.60
59329;BME280;45100;46.926;7.452;2023-07-20T13:06:10;94928.91;;;28.34;33.03
59329;BME280;45100;46.926;7.452;2023-07-20T13:08:40;94923.48;;;28.52;31.96
59329;BME280;45100;46.926;7.452;2023-07-20T13:11:11;94920.72;;;28.59;31.75
59329;BME280;45100;46.926;7.452;2023-07-20T13:13:42;94917.89;;;28.63;31.80
59329;BME280;45100;46.926;7.452;2023-07-20T13:16:13;94916.36;;;28.68;31.70
59329;BME280;45100;46.926;7.452;2023-07-20T13:18:43;94917.91;;;28.64;31.25
59329;BME280;45100;46.926;7.452;2023-07-20T13:21:14;94910.86;;;28.58;31.93
59329;BME280;45100;46.926;7.452;2023-07-20T13:23:45;94905.49;;;28.58;32.17
59329;BME280;45100;46.926;7.452;2023-07-20T13:26:16;94908.99;;;28.62;32.41
59329;BME280;45100;46.926;7.452;2023-07-20T13:28:45;94909.66;;;28.71;31.74
59329;BME280;45100;46.926;7.452;2023-07-20T13:33:50;94907.95;;;28.72;32.12
59329;BME280;45100;46.926;7.452;2023-07-20T13:36:22;94908.27;;;28.79;31.51
59329;BME280;45100;46.926;7.452;2023-07-20T13:38:52;94902.83;;;28.91;31.09
59329;BME280;45100;46.926;7.452;2023-07-20T13:41:23;94901.13;;;28.97;30.82
59329;BME280;45100;46.926;7.452;2023-07-20T13:43:53;94894.23;;;29.01;30.78
59329;BME280;45100;46.926;7.452;2023-07-20T13:46:23;94894.07;;;29.10;30.68
59329;BME280;45100;46.926;7.452;2023-07-20T13:48:54;94891.98;;;29.21;30.53
59329;BME280;45100;46.926;7.452;2023-07-20T13:51:25;94889.72;;;29.31;30.88